Impacts METAR Board
IDs:

KTCL - Tuscaloosa Rgnl, AL, US

Updated at: 2200 UTC 23 May 2018
Potential Impact None Slight Moderate High
Time 23/10Z 23/11Z 23/12Z 23/13Z 23/14Z 23/15Z 23/16Z 23/17Z 23/18Z 23/19Z 23/20Z 23/21Z 23/22Z
Temp71 70 72 75 80 85 86 89 90 84 77 75 76
Dewpt68 68 69 70 71 70 69 70 70 70 71 70 69
Altim30.02 30.05 30.07 30.08 30.10 30.10 30.09 30.08 30.05 30.06 30.06 30.07 30.03
VIS9 6 6 10 10 10 10 10 10 10 10 10
CIG-- -- -- -- 55 70 -- 80 -- -- -- 120 --
CoverCLRCLRCLRFEWOVCBKNFEWBKNCLRCLRSCTBKNCLR
FltCatVFRVFRVFRVFRVFRVFRVFRVFRVFRVFRVFRVFR
WX--BRBR----------VCTSTSVCTS----
WDir0023000360031034060010070
WSpd0 0 3 0 0 4 0 8 7 4 0 3 3
WGst-- -- -- -- -- -- -- -- -- -- -- -- --
Raw hourly METARs
KTCL 230953Z AUTO 00000KT 9SM CLR 22/20 A3002 RMK AO2 SLP163 T02170200 $
KTCL 231053Z AUTO 00000KT 6SM BR CLR 21/20 A3005 RMK AO2 SLP172 T02110200 $
KTCL 231153Z 23003KT 6SM BR CLR 22/21 A3007 RMK AO2 SLP181 7//// T02220206 10228 20211 53022 $
KTCL 231253Z 00000KT 10SM FEW060 24/21 A3008 RMK AO2 SLP185 T02390211 $
KTCL 231353Z 00000KT 10SM OVC055 27/22 A3010 RMK AO2 SLP188 T02670217 $
KTCL 231453Z 36004KT 10SM SCT060 BKN070 29/21 A3010 RMK AO2 SLP189 T02940211 51008 $
KTCL 231553Z 00000KT FEW075 30/21 A3009 RMK AO2 SLP185 T03000206 $
KTCL 231653Z 31008KT 10SM SCT040 BKN080 32/21 A3008 RMK AO2 LTG DSNT S-W SLP182 T03170211 $
KTCL 231753Z 34007KT 10SM VCTS CLR 32/21 A3005 RMK AO2 LTG DSNT SW SLP171 T03220211 10322 20222 58017 $
KTCL 231853Z 06004KT 10SM TS CLR 29/21 A3006 RMK AO2 LTG DSNT ALQDS TSB40 SLP176 T02890211 $
KTCL 232003Z 00000KT 10SM VCTS FEW029 SCT049 SCT065 25/22 A3006 RMK AO2 LTG DSNT N-SE TSE1957 T02500217
KTCL 232053Z 10003KT 10SM FEW055 SCT070 BKN120 24/21 A3007 RMK AO2 LTG DSNT NE-SE RAB31E51 TSE1957 SLP180 P0000 60000 T02390211 50001
KTCL 232153Z 07003KT 10SM CLR 24/21 A3003 RMK AO2 RAB2054E16 SLP165 P0000 T02440206



Page loaded:  22:27 UTC  |   03:27 PM Pacific  |   04:27 PM Mountain  |   05:27 PM Central  |   06:27 PM Eastern

 

ADVISORIES

FORECASTS

FORECASTS

OBSERVATIONS

USER TOOLS

ABOUT US